This is the latest recevied weather packets stored in our database for station/object EA1JVZ-1. If no packets are shown the sender has not sent any weather packets the latest 10 day(s).
| Time | Temp. | Humidity | Pressure | Rain* | Wind** | Luminosity | Snow |
|---|---|---|---|---|---|---|---|
| 1777468849 | 13.33° C | 56% | 1019.8 hPa | - | - | - | - |
| 1777467948 | 14.44° C | 52% | 1019.6 hPa | - | - | - | - |
| 1777467053 | 15° C | 52% | 1019.5 hPa | - | - | - | - |
| 1777465248 | 15.56° C | 51% | 1019.7 hPa | - | - | - | - |
| 1777464353 | 16.11° C | 51% | 1019.7 hPa | - | - | - | - |
| 1777463451 | 16.67° C | 51% | 1019.7 hPa | - | - | - | - |
| 1777462551 | 17.78° C | 51% | 1019.7 hPa | - | - | - | - |
| 1777461647 | 16.67° C | 61% | 1019.4 hPa | - | - | - | - |
| 1777460747 | 16.67° C | 52% | 1019.4 hPa | - | - | - | - |
| 1777459852 | 16.67° C | 51% | 1019.7 hPa | - | - | - | - |
| 1777458951 | 16.67° C | 51% | 1019.7 hPa | - | - | - | - |
| 1777457152 | 17.22° C | 50% | 1019.6 hPa | - | - | - | - |
| 1777456247 | 17.22° C | 49% | 1019.4 hPa | - | - | - | - |
| 1777386970 | 34.44° C | 34% | 1020.4 hPa | - | - | - | - |
| 1777386070 | 32.78° C | 35% | 1020.5 hPa | - | - | - | - |
| 1777385169 | 28.89° C | 40% | 1020.8 hPa | - | - | - | - |
| 1777384269 | 34.44° C | 35% | 1020.8 hPa | - | - | - | - |
| 1777383369 | 33.33° C | 36% | 1021.1 hPa | - | - | - | - |
| 1777382468 | 34.44° C | 35% | 1021.2 hPa | - | - | - | - |
| 1777381568 | 34.44° C | 34% | 1021.4 hPa | - | - | - | - |
| 1777380668 | 32.22° C | 35% | 1021.6 hPa | - | - | - | - |
| 1777379768 | 30° C | 37% | 1021.9 hPa | - | - | - | - |
| 1777378868 | 30° C | 37% | 1022 hPa | - | - | - | - |
| 1777377968 | 29.44° C | 37% | 1022.2 hPa | - | - | - | - |
| 1777377067 | 27.78° C | 38% | 1022.4 hPa | - | - | - | - |
* Rain since midnight (hover to see other rain measurements)
** Current wind speed in m/s (hover to see current wind gust speed)